Pottersville, Missouri
Current Conditions -  °F | °C
As of 11:53 AM on Friday 31 Oct 2014 (Local Time) from KUNO Reporting Station
Scattered Clouds Scattered Clouds  
Wind Chill:   Ceiling: Unl
Heat Index:   Visibility: 10mi
Dew Point:   Wind: 15mph
Humidity: 54%   Direction: 330°NNW
Pressure: 30.27"   Gusts: 26mph
Location:  36.7°N, 92.03°W
Report Text: KUNO 311653Z AUTO 33013G23KT 10SM SCT038 09/00 A3027 RMK AO2 PK WND 35027/1634 SLP250 T00890000
Loading
Personal Weather Stations






























Interactive Weather Map
Tropical Storm Tracking
New forecast layout! Learn more

10-Day Weather Forecast

Advertisements
Track Severe Weather on mobile